Platinum, AK (99651)

12:11 AM AKDT on July 30, 2015 (GMT -0800)
Cape Newenham | | Change Station
CLOSE
Current Station
Airport
Location: Cape Newenham,
Elevation: 538 ft
Nearby Weather Stations

Elev 538 ft 58.65 °N, 162.06 °W | Updated 16 minutes ago

Mostly Cloudy
Mostly Cloudy
52 °F
Feels Like 52 °F
N
6
Wind Variable Wind from NNW

Today
High -- | Low -- °F
--% Chance of Precip.
Yesterday
High -- | Low -- °F
Precip. -- in
6:30 AM 11:13 PM
Waxing Gibbous, 98% visible
Pressure 30.03 in
Visibility 10.0 miles
Clouds Mostly Cloudy 900 ft
Dew Point 50 °F
Humidity 92%
Rainfall 0.00 in
Snow Depth Not available.
UV 0 out of 12
Pollen Not available.
Air Quality Not available.
Flu Activity Not available.
METAR PAEH 300755Z AUTO 33005KT 10SM BKN009 11/10 A3002 RMK AO2 SLP168 T01110099

More Conditions Fewer Conditions

Pressure 30.03 in
Visibility 10.0 miles
Clouds Mostly Cloudy 900 ft
Dew Point 50 °F
Humidity 92%
Rainfall 0.00 in
Snow Depth Not available.
UV 0 out of 12
Pollen Not available.
Air Quality Not available.
Flu Activity Not available.
METAR PAEH 300755Z AUTO 33005KT 10SM BKN009 11/10 A3002 RMK AO2 SLP168 T01110099

More Conditions Fewer Conditions

10-Day Weather Forecast

×

Almanac

Astronomy

Jul. 30, 2015 Rise Set
Actual Time
Civil Twilight
Nautical Twilight
Astronomical Twilight
Moon
Length of Visible Light
Length of Day
Tomorrow will be .
, % of the Moon is Illuminated

Today's Extremes

State Highs State Lows

Community

WunderPhotos

Upload Photos

1,842,315 photos uploaded!

WunderBlogs® & News

Nearby

Air Quality

  Air Quality AQ Index Pollutant
Not available.

Snow Depth

Station Depth Elevation

Earthquake Activity

City Distance Mag. Time & Date
Minimum magnitude displayed is 2.5.

Coastal Water Temperatures

Place Temperature

Stations

Nearby Weather Stations

Station Location Temp. Windchill Dew Point Humidity Wind Precip. Elev Updated Type